createdAt,value
2019-03-15T00:00:29.968Z,76.83
2019-03-15T00:03:00.491Z,76.98
2019-03-15T00:05:30.510Z,77.11
2019-03-15T00:08:00.761Z,77.17
2019-03-15T00:10:30.913Z,77.17
2019-03-15T00:13:00.696Z,77.25
2019-03-15T00:15:30.771Z,77.34
2019-03-15T00:18:00.795Z,77.38
2019-03-15T00:20:30.712Z,77.47
2019-03-15T00:23:00.556Z,77.61
2019-03-15T00:25:30.537Z,77.65
2019-03-15T00:28:00.804Z,77.75
2019-03-15T00:30:31.104Z,77.83
2019-03-15T00:33:00.965Z,77.79
2019-03-15T00:35:31.063Z,77.79
2019-03-15T00:38:01.137Z,77.88
2019-03-15T00:40:31.159Z,77.86
2019-03-15T00:43:01.182Z,77.86
2019-03-15T00:45:31.299Z,77.85
2019-03-15T00:48:01.416Z,77.83
2019-03-15T00:50:31.404Z,77.89
2019-03-15T00:53:01.248Z,77.86
2019-03-15T00:55:31.087Z,77.84
2019-03-15T00:58:01.033Z,77.88
2019-03-15T01:00:31.388Z,77.96
2019-03-15T01:03:01.187Z,78.02
2019-03-15T01:05:31.227Z,78.11
2019-03-15T01:08:00.925Z,78.18
2019-03-15T01:10:30.915Z,78.28
2019-03-15T01:13:00.749Z,78.35
2019-03-15T01:15:30.673Z,78.37
2019-03-15T01:18:00.667Z,78.34
2019-03-15T01:20:30.588Z,78.34
2019-03-15T01:23:00.678Z,78.36
2019-03-15T01:25:30.746Z,78.41
2019-03-15T01:28:00.790Z,78.38
2019-03-15T01:30:30.749Z,78.36
2019-03-15T01:33:00.534Z,78.34
2019-03-15T01:35:33.484Z,78.31
2019-03-15T01:38:02.197Z,78.33
2019-03-15T01:40:32.169Z,78.32
2019-03-15T01:43:02.391Z,78.28
2019-03-15T01:45:32.143Z,78.29
2019-03-15T01:48:02.274Z,78.28
2019-03-15T01:50:32.248Z,78.31
2019-03-15T01:53:02.266Z,78.36
2019-03-15T01:55:32.158Z,78.38
2019-03-15T01:58:01.962Z,78.40
2019-03-15T02:00:31.891Z,78.42
2019-03-15T02:03:02.458Z,78.40
2019-03-15T02:05:32.701Z,78.43
2019-03-15T02:08:02.609Z,78.40
2019-03-15T02:10:32.669Z,78.37
2019-03-15T02:13:02.563Z,78.34
2019-03-15T02:15:32.561Z,78.32
2019-03-15T02:18:02.656Z,78.29
2019-03-15T02:20:33.184Z,78.26
2019-03-15T02:23:03.071Z,78.26
2019-03-15T02:25:33.077Z,78.25
2019-03-15T02:28:03.103Z,78.23
2019-03-15T02:30:33.027Z,78.20
2019-03-15T02:33:03.158Z,78.13
2019-03-15T02:35:32.997Z,78.06
2019-03-15T02:38:02.759Z,77.96
2019-03-15T02:40:32.524Z,77.87
2019-03-15T02:43:02.609Z,77.82
2019-03-15T02:45:33.024Z,77.75
2019-03-15T02:48:03.259Z,77.67
2019-03-15T02:50:33.150Z,77.57
2019-03-15T02:53:03.139Z,77.47
2019-03-15T02:55:33.502Z,77.38
2019-03-15T02:58:03.505Z,77.24
2019-03-15T03:00:34.191Z,77.12
2019-03-15T03:03:04.258Z,77.00
2019-03-15T03:05:34.485Z,76.92
2019-03-15T03:08:04.765Z,76.83
2019-03-15T03:10:34.916Z,76.78
2019-03-15T03:13:04.803Z,76.82
2019-03-15T03:15:34.851Z,76.89
2019-03-15T03:18:04.830Z,77.01
2019-03-15T03:20:34.756Z,77.15
2019-03-15T03:23:04.759Z,77.27
2019-03-15T03:25:34.756Z,77.52
2019-03-15T03:28:05.117Z,77.57
2019-03-15T03:30:35.152Z,77.66
2019-03-15T03:33:05.511Z,77.86
2019-03-15T03:35:35.296Z,77.92
2019-03-15T03:38:07.692Z,78.17
2019-03-15T03:40:38.114Z,78.11
2019-03-15T03:43:08.154Z,78.12
2019-03-15T03:45:38.250Z,78.16
2019-03-15T03:48:08.579Z,78.24
2019-03-15T03:50:39.473Z,78.28
2019-03-15T03:53:09.756Z,78.28
2019-03-15T03:55:39.674Z,78.18
2019-03-15T03:58:09.828Z,78.05
2019-03-15T04:00:40.013Z,78.01
2019-03-15T04:03:10.227Z,77.99
2019-03-15T04:05:40.239Z,77.96
2019-03-15T04:08:10.585Z,77.95
2019-03-15T04:10:40.460Z,78.01
2019-03-15T04:13:10.750Z,78.09
2019-03-15T04:15:40.887Z,78.16
2019-03-15T04:18:11.439Z,78.27
2019-03-15T04:20:42.479Z,78.38
2019-03-15T04:23:12.693Z,78.51
2019-03-15T04:25:43.096Z,78.66
2019-03-15T04:28:12.993Z,78.73
2019-03-15T04:30:42.900Z,78.64
2019-03-15T04:33:13.016Z,78.57
2019-03-15T04:35:46.881Z,78.46
2019-03-15T04:38:18.346Z,78.34
2019-03-15T04:40:49.334Z,78.18
2019-03-15T04:43:19.265Z,78.03
2019-03-15T04:45:49.209Z,77.96
2019-03-15T04:48:19.212Z,77.91
2019-03-15T04:50:49.326Z,77.82
2019-03-15T04:53:19.671Z,77.73
2019-03-15T04:55:50.075Z,77.60
2019-03-15T04:58:20.002Z,77.52
2019-03-15T05:00:50.978Z,77.45
2019-03-15T05:03:21.396Z,77.35
2019-03-15T05:06:03.150Z,77.28
2019-03-15T05:08:24.978Z,77.15
2019-03-15T05:10:54.843Z,76.98
2019-03-15T05:13:25.511Z,76.78
2019-03-15T05:15:55.983Z,76.50
2019-03-15T05:18:26.477Z,76.23
2019-03-15T05:20:57.479Z,75.99
2019-03-15T05:23:28.099Z,75.65
2019-03-15T05:25:58.192Z,75.43
2019-03-15T05:28:28.498Z,75.06
2019-03-15T05:30:58.790Z,74.71
2019-03-15T05:33:30.032Z,74.48
2019-03-15T05:36:00.648Z,74.25
2019-03-15T05:38:30.809Z,74.02
2019-03-15T05:41:01.598Z,73.76
2019-03-15T05:43:32.171Z,73.54
2019-03-15T05:46:02.454Z,73.38
2019-03-15T05:48:32.641Z,73.19
2019-03-15T05:51:02.632Z,73.03
2019-03-15T05:53:32.694Z,72.82
2019-03-15T05:56:02.783Z,72.63
2019-03-15T05:58:33.216Z,72.46
2019-03-15T06:01:03.286Z,72.23
2019-03-15T06:03:47.831Z,72.05
2019-03-15T06:06:10.146Z,71.82
2019-03-15T06:08:39.987Z,71.55
2019-03-15T06:11:10.673Z,71.31
2019-03-15T06:13:41.437Z,71.11
2019-03-15T06:16:11.739Z,70.86
2019-03-15T06:18:41.847Z,70.64
2019-03-15T06:21:12.165Z,70.47
2019-03-15T06:23:42.375Z,70.33
2019-03-15T06:26:13.100Z,69.99
2019-03-15T06:28:44.502Z,69.65
2019-03-15T06:31:14.767Z,69.29
2019-03-15T06:33:45.314Z,68.51
2019-03-15T06:36:15.754Z,68.07
2019-03-15T06:38:45.590Z,67.82
2019-03-15T06:41:17.101Z,67.72
2019-03-15T06:43:47.598Z,67.51
2019-03-15T06:46:17.696Z,67.13
2019-03-15T06:48:48.057Z,66.86
2019-03-15T06:51:21.179Z,66.74
2019-03-15T06:53:51.684Z,66.27
2019-03-15T06:56:23.133Z,65.94
2019-03-15T06:58:53.851Z,65.52
2019-03-15T07:01:24.309Z,65.02
2019-03-15T07:03:56.409Z,64.37
2019-03-15T07:06:27.334Z,63.82
2019-03-15T07:08:58.676Z,63.43
2019-03-15T07:11:28.842Z,62.97
2019-03-15T07:13:59.413Z,62.34
2019-03-15T07:16:30.741Z,62.13
2019-03-15T07:19:01.447Z,61.79
2019-03-15T07:21:32.538Z,61.38
2019-03-15T07:24:03.528Z,61.00
2019-03-15T07:26:33.806Z,60.45
2019-03-15T07:29:04.076Z,60.13
2019-03-15T07:31:34.878Z,59.85
2019-03-15T07:34:05.382Z,59.67
2019-03-15T07:36:37.358Z,59.16
2019-03-15T07:39:07.803Z,58.61
2019-03-15T07:41:37.852Z,58.24
2019-03-15T07:44:08.317Z,57.93
2019-03-15T07:46:39.260Z,57.41
2019-03-15T07:49:10.212Z,57.23
2019-03-15T07:51:40.658Z,56.89
2019-03-15T07:54:10.598Z,56.66
2019-03-15T07:56:40.607Z,56.35
2019-03-15T07:59:10.622Z,55.94
2019-03-15T08:01:40.676Z,55.57
2019-03-15T08:04:16.781Z,54.98
2019-03-15T08:06:42.219Z,54.73
2019-03-15T08:09:12.177Z,54.39
2019-03-15T08:11:42.069Z,53.98
2019-03-15T08:14:11.970Z,53.88
2019-03-15T08:16:42.014Z,53.55
2019-03-15T08:19:12.372Z,54.23
2019-03-15T08:21:42.399Z,54.27
2019-03-15T08:24:12.261Z,54.38
2019-03-15T08:26:42.243Z,54.72
2019-03-15T08:29:12.984Z,54.72
2019-03-15T08:31:43.270Z,54.48
2019-03-15T08:34:13.261Z,54.49
2019-03-15T08:36:43.660Z,54.22
2019-03-15T08:39:16.588Z,53.78
2019-03-15T08:41:46.375Z,53.63
2019-03-15T08:44:16.788Z,53.43
2019-03-15T08:46:47.007Z,53.44
2019-03-15T08:49:16.926Z,53.32
2019-03-15T08:51:47.100Z,53.31
2019-03-15T08:54:16.825Z,53.23
2019-03-15T08:56:46.921Z,53.22
2019-03-15T08:59:23.015Z,52.93
2019-03-15T09:01:53.638Z,52.55
2019-03-15T09:04:23.707Z,52.29
2019-03-15T09:06:53.693Z,52.32
2019-03-15T09:09:26.017Z,52.07
2019-03-15T09:11:55.712Z,51.89
2019-03-15T09:14:25.877Z,51.88
2019-03-15T09:16:56.349Z,51.74
2019-03-15T09:19:26.499Z,51.69
2019-03-15T09:21:56.331Z,52.03
2019-03-15T09:24:26.456Z,52.08
2019-03-15T09:26:56.480Z,51.96
2019-03-15T09:29:26.509Z,51.70
2019-03-15T09:32:05.418Z,51.53
2019-03-15T09:34:28.486Z,51.30
2019-03-15T09:36:58.500Z,50.98
2019-03-15T09:39:28.712Z,50.78
2019-03-15T09:41:58.671Z,50.61
2019-03-15T09:44:28.726Z,50.39
2019-03-15T09:46:58.616Z,49.68
2019-03-15T09:49:29.203Z,49.10
2019-03-15T09:51:59.109Z,48.63
2019-03-15T09:54:29.251Z,48.22
2019-03-15T09:56:59.070Z,48.00
2019-03-15T09:59:29.309Z,48.00
2019-03-15T10:01:59.426Z,47.32
2019-03-15T10:04:29.716Z,46.93
2019-03-15T10:07:00.144Z,46.75
2019-03-15T10:09:44.819Z,46.25
2019-03-15T10:12:02.743Z,46.03
2019-03-15T10:14:32.803Z,46.05
2019-03-15T10:17:02.904Z,45.93
2019-03-15T10:19:33.067Z,45.73
2019-03-15T10:22:03.403Z,45.90
2019-03-15T10:24:33.547Z,45.71
2019-03-15T10:27:04.236Z,45.35
2019-03-15T10:29:34.330Z,45.31
2019-03-15T10:32:04.984Z,45.24
2019-03-15T10:34:35.772Z,45.10
2019-03-15T10:37:06.562Z,44.95
2019-03-15T10:39:37.161Z,45.16
2019-03-15T10:42:08.030Z,45.08
2019-03-15T10:44:38.391Z,44.71
2019-03-15T10:47:08.370Z,44.53
2019-03-15T10:49:38.417Z,44.34
2019-03-15T10:52:09.036Z,44.00
2019-03-15T10:54:39.514Z,43.88
2019-03-15T10:57:10.063Z,43.10
2019-03-15T10:59:40.696Z,42.98
2019-03-15T11:02:11.868Z,42.66
2019-03-15T11:04:42.307Z,43.07
2019-03-15T11:07:13.209Z,43.20
2019-03-15T11:09:43.380Z,43.11
2019-03-15T11:12:14.555Z,43.01
2019-03-15T11:14:45.127Z,42.83
2019-03-15T11:17:15.988Z,42.70
2019-03-15T11:19:46.442Z,42.69
2019-03-15T11:22:17.147Z,42.21
2019-03-15T11:24:47.808Z,42.24
2019-03-15T11:27:18.702Z,42.18
2019-03-15T11:29:49.628Z,42.08
2019-03-15T11:32:21.336Z,41.58
2019-03-15T11:34:58.406Z,41.61
2019-03-15T11:37:27.195Z,41.53
2019-03-15T11:39:57.755Z,41.60
2019-03-15T11:42:28.023Z,41.92
2019-03-15T11:44:58.556Z,41.95
2019-03-15T11:47:28.969Z,42.05
2019-03-15T11:50:02.179Z,42.11
2019-03-15T11:52:35.310Z,42.33
2019-03-15T11:55:08.078Z,42.30
2019-03-15T11:57:38.799Z,42.48
2019-03-15T12:00:12.994Z,42.86
2019-03-15T12:02:43.054Z,42.91
2019-03-15T12:05:13.884Z,42.87
2019-03-15T12:07:44.237Z,42.78
2019-03-15T12:10:16.452Z,42.46
2019-03-15T12:12:46.762Z,42.26
2019-03-15T12:15:17.238Z,41.96
2019-03-15T12:17:47.611Z,41.63
2019-03-15T12:20:24.704Z,41.40
2019-03-15T12:22:54.772Z,41.28
2019-03-15T12:25:24.984Z,40.90
2019-03-15T12:27:55.546Z,41.40
2019-03-15T12:30:25.940Z,41.64
2019-03-15T12:33:05.414Z,41.55
2019-03-15T12:35:36.327Z,41.42
2019-03-15T12:38:06.384Z,41.50
2019-03-15T12:40:38.019Z,41.54
2019-03-15T12:43:08.567Z,41.40
2019-03-15T12:45:38.922Z,41.68
2019-03-15T12:48:09.183Z,41.83
2019-03-15T12:50:39.427Z,41.87
2019-03-15T12:53:10.283Z,41.87
2019-03-15T12:55:40.553Z,42.07
2019-03-15T12:58:11.430Z,42.04
2019-03-15T13:00:41.338Z,42.08
2019-03-15T13:03:11.643Z,42.26
2019-03-15T13:05:41.808Z,42.04
2019-03-15T13:08:11.829Z,42.19
2019-03-15T13:10:42.188Z,43.11
2019-03-15T13:13:13.300Z,43.24
2019-03-15T13:15:43.659Z,43.34
2019-03-15T13:18:14.996Z,43.35
2019-03-15T13:20:45.343Z,43.54
2019-03-15T13:23:15.376Z,43.67
2019-03-15T13:25:45.582Z,43.85
2019-03-15T13:28:15.999Z,44.09
2019-03-15T13:30:46.150Z,43.92
2019-03-15T13:33:20.875Z,44.21
2019-03-15T13:35:48.401Z,44.44
2019-03-15T13:38:18.872Z,44.56
2019-03-15T13:40:48.855Z,44.55
2019-03-15T13:45:57.897Z,44.16
2019-03-15T13:48:28.343Z,44.01
2019-03-15T13:50:58.477Z,43.81
2019-03-15T13:53:29.150Z,43.58
2019-03-15T13:55:59.256Z,43.39
2019-03-15T13:58:29.546Z,43.33
2019-03-15T14:01:00.205Z,43.27
2019-03-15T14:03:30.430Z,43.29
2019-03-15T14:06:00.768Z,43.26
2019-03-15T14:08:31.412Z,43.19
2019-03-15T14:11:01.963Z,43.55
2019-03-15T14:13:32.081Z,43.79
2019-03-15T14:16:02.672Z,43.76
2019-03-15T14:18:32.969Z,43.70
2019-03-15T14:21:03.330Z,43.87
2019-03-15T14:23:33.707Z,44.06
2019-03-15T14:26:03.592Z,44.01
2019-03-15T14:28:33.593Z,43.83
2019-03-15T14:31:03.857Z,44.09
2019-03-15T14:33:34.132Z,44.24
2019-03-15T14:36:04.522Z,44.10
2019-03-15T14:38:34.600Z,44.03
2019-03-15T14:41:07.499Z,44.33
2019-03-15T14:43:37.297Z,44.48
2019-03-15T14:46:10.859Z,44.62
2019-03-15T14:48:40.517Z,44.96
2019-03-15T14:51:10.762Z,45.10
2019-03-15T14:53:40.718Z,45.24
2019-03-15T14:56:11.165Z,45.44
2019-03-15T14:58:41.534Z,45.72
2019-03-15T15:01:11.978Z,46.00
2019-03-15T15:03:42.144Z,46.35
2019-03-15T15:06:12.624Z,46.63
2019-03-15T15:08:42.590Z,46.93
2019-03-15T15:11:12.701Z,47.32
2019-03-15T15:13:43.211Z,47.59
2019-03-15T15:16:13.332Z,47.97
2019-03-15T15:18:43.620Z,48.33
2019-03-15T15:21:13.819Z,48.66
2019-03-15T15:23:44.310Z,48.98
2019-03-15T15:26:14.542Z,49.30
2019-03-15T15:28:44.500Z,49.61
2019-03-15T15:31:14.930Z,49.90
2019-03-15T15:33:44.822Z,50.36
2019-03-15T15:36:15.086Z,50.61
2019-03-15T15:38:45.888Z,50.98
2019-03-15T15:41:16.337Z,51.21
2019-03-15T15:43:47.298Z,51.60
2019-03-15T15:46:17.265Z,51.80
2019-03-15T15:48:47.697Z,52.29
2019-03-15T15:51:17.715Z,52.64
2019-03-15T15:53:50.804Z,53.13
2019-03-15T15:56:21.070Z,53.35
2019-03-15T15:58:51.235Z,53.55
2019-03-15T16:01:21.387Z,53.85
2019-03-15T16:03:51.529Z,54.15
2019-03-15T16:06:21.937Z,54.47
2019-03-15T16:08:52.175Z,54.75
2019-03-15T16:11:22.365Z,54.93
2019-03-15T16:13:52.670Z,55.11
2019-03-15T16:16:22.981Z,55.45
2019-03-15T16:18:53.054Z,55.58
2019-03-15T16:21:24.343Z,55.64
2019-03-15T16:23:54.449Z,55.81
2019-03-15T16:26:24.518Z,56.22
2019-03-15T16:28:54.565Z,56.30
2019-03-15T16:31:24.770Z,56.47
2019-03-15T16:33:55.124Z,56.55
2019-03-15T16:36:24.874Z,56.69
2019-03-15T16:38:55.054Z,56.80
2019-03-15T16:41:25.657Z,57.04
2019-03-15T16:43:57.079Z,57.26
2019-03-15T16:46:27.359Z,57.34
2019-03-15T16:48:57.173Z,57.49
2019-03-15T16:51:27.372Z,57.66
2019-03-15T16:53:58.026Z,57.72
2019-03-15T16:56:28.362Z,57.90
2019-03-15T16:58:58.223Z,57.99
2019-03-15T17:01:28.682Z,58.22
2019-03-15T17:03:58.657Z,58.31
2019-03-15T17:06:29.084Z,58.32
2019-03-15T17:08:59.573Z,58.43
2019-03-15T17:11:30.395Z,58.41
2019-03-15T17:14:00.627Z,58.43
2019-03-15T17:16:30.993Z,58.59
2019-03-15T17:19:01.066Z,58.67
2019-03-15T17:21:31.490Z,58.77
2019-03-15T17:24:01.575Z,58.88
2019-03-15T17:26:32.081Z,59.01
2019-03-15T17:29:02.286Z,59.10
2019-03-15T17:31:32.443Z,59.28
2019-03-15T17:34:02.528Z,59.36
2019-03-15T17:36:33.759Z,59.40
2019-03-15T17:39:07.063Z,59.47
2019-03-15T17:41:37.368Z,59.57
2019-03-15T17:44:07.377Z,59.71
2019-03-15T17:46:37.926Z,59.81
2019-03-15T17:49:08.333Z,59.86
2019-03-15T17:51:38.289Z,59.92
2019-03-15T17:54:08.356Z,60.07
2019-03-15T17:56:38.686Z,60.17
2019-03-15T17:59:12.602Z,60.20
2019-03-15T18:01:40.839Z,60.20
2019-03-15T18:04:11.310Z,60.32
2019-03-15T18:06:41.643Z,60.33
2019-03-15T18:09:11.954Z,60.39
2019-03-15T18:11:42.220Z,60.30
2019-03-15T18:14:12.296Z,60.22
2019-03-15T18:16:42.684Z,60.25
2019-03-15T18:19:14.822Z,60.26
2019-03-15T18:21:45.430Z,60.35
2019-03-15T18:24:15.739Z,60.40
2019-03-15T18:26:45.675Z,60.46
2019-03-15T18:29:25.717Z,60.48
2019-03-15T18:31:48.136Z,60.48
2019-03-15T18:34:18.325Z,60.48
2019-03-15T18:36:49.119Z,60.51
2019-03-15T18:39:22.196Z,60.46
2019-03-15T18:41:53.088Z,60.41
2019-03-15T18:44:24.473Z,60.38
2019-03-15T18:47:02.298Z,60.39
2019-03-15T18:49:33.172Z,60.30
2019-03-15T18:52:03.813Z,60.22
2019-03-15T18:54:37.805Z,60.23
2019-03-15T18:57:07.855Z,60.31
2019-03-15T18:59:40.588Z,60.40
2019-03-15T19:02:11.045Z,60.43
2019-03-15T19:04:41.317Z,60.52
2019-03-15T19:07:11.512Z,60.58
2019-03-15T19:09:46.580Z,60.67
2019-03-15T19:12:16.654Z,60.78
2019-03-15T19:14:46.786Z,60.78
2019-03-15T19:17:16.778Z,60.76
2019-03-15T19:19:47.794Z,60.78
2019-03-15T19:22:18.850Z,60.82
2019-03-15T19:24:52.430Z,61.02
2019-03-15T19:27:23.053Z,61.08
2019-03-15T19:29:54.293Z,61.11
2019-03-15T19:32:25.473Z,61.21
2019-03-15T19:34:55.678Z,61.39
2019-03-15T19:37:25.634Z,61.49
2019-03-15T19:39:55.693Z,61.51
2019-03-15T19:42:25.773Z,61.59
2019-03-15T19:44:56.020Z,61.57
2019-03-15T19:47:26.650Z,61.59
2019-03-15T19:49:57.307Z,61.58
2019-03-15T19:52:27.625Z,61.57
2019-03-15T19:55:00.676Z,61.56
2019-03-15T19:57:30.106Z,61.56
2019-03-15T20:00:07.617Z,61.67
2019-03-15T20:02:32.663Z,61.88
2019-03-15T20:05:02.416Z,62.14
2019-03-15T20:07:32.554Z,62.54
2019-03-15T20:10:02.682Z,62.81
2019-03-15T20:12:32.897Z,63.02
2019-03-15T20:15:03.095Z,63.15
2019-03-15T20:17:34.070Z,63.23
2019-03-15T20:20:04.556Z,63.33
2019-03-15T20:22:35.155Z,63.57
2019-03-15T20:25:05.680Z,63.81
2019-03-15T20:27:36.500Z,64.16
2019-03-15T20:30:20.544Z,64.31
2019-03-15T20:32:40.020Z,64.54
2019-03-15T20:35:09.837Z,64.80
2019-03-15T20:37:39.866Z,64.99
2019-03-15T20:40:10.436Z,65.23
2019-03-15T20:42:40.502Z,65.27
2019-03-15T20:45:11.924Z,65.31
2019-03-15T20:47:42.113Z,65.35
2019-03-15T20:50:12.347Z,65.33
2019-03-15T20:52:42.517Z,65.18
2019-03-15T20:55:12.436Z,64.90
2019-03-15T20:57:42.524Z,64.69
2019-03-15T21:00:13.906Z,64.57
2019-03-15T21:02:44.203Z,64.57
2019-03-15T21:05:14.135Z,64.58
2019-03-15T21:07:44.559Z,64.54
2019-03-15T21:10:14.785Z,64.52
2019-03-15T21:12:45.086Z,64.50
2019-03-15T21:15:15.360Z,64.51
2019-03-15T21:17:45.421Z,64.44
2019-03-15T21:20:15.560Z,64.41
2019-03-15T21:22:45.488Z,64.30
2019-03-15T21:25:15.561Z,64.22
2019-03-15T23:57:03.222Z,68.68
2019-03-15T23:59:33.247Z,69.02
